sensor_id;sensor_type;location;lat;lon;timestamp;P1;durP1;ratioP1;P2;durP2;ratioP2
9124;SDS011;4597;48.730;9.114;2023-02-11T00:00:50;23.90;;;16.27;;
9124;SDS011;4597;48.730;9.114;2023-02-11T00:03:16;25.37;;;16.33;;
9124;SDS011;4597;48.730;9.114;2023-02-11T00:05:41;24.87;;;15.83;;
9124;SDS011;4597;48.730;9.114;2023-02-11T00:08:07;26.57;;;17.40;;
9124;SDS011;4597;48.730;9.114;2023-02-11T00:10:32;23.87;;;16.50;;
9124;SDS011;4597;48.730;9.114;2023-02-11T00:12:58;26.77;;;16.77;;
9124;SDS011;4597;48.730;9.114;2023-02-11T00:15:23;26.17;;;17.80;;
9124;SDS011;4597;48.730;9.114;2023-02-11T00:17:49;29.13;;;19.57;;
9124;SDS011;4597;48.730;9.114;2023-02-11T00:20:14;29.70;;;19.63;;
9124;SDS011;4597;48.730;9.114;2023-02-11T00:22:40;33.57;;;20.63;;
9124;SDS011;4597;48.730;9.114;2023-02-11T00:25:06;33.37;;;21.70;;
9124;SDS011;4597;48.730;9.114;2023-02-11T00:27:31;37.17;;;24.83;;
9124;SDS011;4597;48.730;9.114;2023-02-11T00:29:57;35.87;;;22.87;;
9124;SDS011;4597;48.730;9.114;2023-02-11T00:32:24;33.57;;;22.03;;
9124;SDS011;4597;48.730;9.114;2023-02-11T00:34:53;28.50;;;18.80;;
9124;SDS011;4597;48.730;9.114;2023-02-11T00:37:19;31.83;;;18.83;;
9124;SDS011;4597;48.730;9.114;2023-02-11T00:39:45;28.10;;;17.80;;
9124;SDS011;4597;48.730;9.114;2023-02-11T00:42:12;29.83;;;17.97;;
9124;SDS011;4597;48.730;9.114;2023-02-11T00:44:38;26.60;;;15.90;;
9124;SDS011;4597;48.730;9.114;2023-02-11T00:47:04;20.30;;;13.70;;
9124;SDS011;4597;48.730;9.114;2023-02-11T00:49:29;17.77;;;12.60;;
9124;SDS011;4597;48.730;9.114;2023-02-11T00:51:55;17.50;;;12.60;;
9124;SDS011;4597;48.730;9.114;2023-02-11T00:54:20;18.27;;;12.93;;
9124;SDS011;4597;48.730;9.114;2023-02-11T00:56:46;19.83;;;14.23;;
9124;SDS011;4597;48.730;9.114;2023-02-11T00:59:11;29.87;;;19.23;;
9124;SDS011;4597;48.730;9.114;2023-02-11T01:01:37;42.33;;;26.53;;
9124;SDS011;4597;48.730;9.114;2023-02-11T01:04:02;46.23;;;26.77;;
9124;SDS011;4597;48.730;9.114;2023-02-11T01:06:28;45.87;;;26.77;;
9124;SDS011;4597;48.730;9.114;2023-02-11T01:08:53;42.57;;;24.20;;
9124;SDS011;4597;48.730;9.114;2023-02-11T01:11:19;38.90;;;24.87;;
9124;SDS011;4597;48.730;9.114;2023-02-11T01:13:46;40.47;;;25.37;;
9124;SDS011;4597;48.730;9.114;2023-02-11T01:16:13;40.07;;;25.43;;
9124;SDS011;4597;48.730;9.114;2023-02-11T01:18:38;37.63;;;25.00;;
9124;SDS011;4597;48.730;9.114;2023-02-11T01:21:05;38.47;;;23.70;;
9124;SDS011;4597;48.730;9.114;2023-02-11T01:23:31;36.10;;;23.97;;
9124;SDS011;4597;48.730;9.114;2023-02-11T01:25:57;38.57;;;24.23;;
9124;SDS011;4597;48.730;9.114;2023-02-11T01:28:24;34.10;;;22.47;;
9124;SDS011;4597;48.730;9.114;2023-02-11T01:30:51;35.97;;;21.90;;
9124;SDS011;4597;48.730;9.114;2023-02-11T01:33:17;29.33;;;18.97;;
9124;SDS011;4597;48.730;9.114;2023-02-11T01:35:43;24.27;;;17.17;;
9124;SDS011;4597;48.730;9.114;2023-02-11T01:38:16;24.73;;;15.97;;
9124;SDS011;4597;48.730;9.114;2023-02-11T01:40:51;26.33;;;15.90;;
9124;SDS011;4597;48.730;9.114;2023-02-11T01:43:18;22.53;;;14.90;;
9124;SDS011;4597;48.730;9.114;2023-02-11T01:48:14;23.30;;;14.47;;
9124;SDS011;4597;48.730;9.114;2023-02-11T01:50:44;19.83;;;13.03;;
9124;SDS011;4597;48.730;9.114;2023-02-11T01:53:14;19.40;;;13.20;;
9124;SDS011;4597;48.730;9.114;2023-02-11T01:55:59;19.23;;;12.30;;
9124;SDS011;4597;48.730;9.114;2023-02-11T01:58:43;20.27;;;13.63;;
9124;SDS011;4597;48.730;9.114;2023-02-11T02:01:12;18.33;;;13.10;;
9124;SDS011;4597;48.730;9.114;2023-02-11T02:03:42;20.37;;;14.17;;
9124;SDS011;4597;48.730;9.114;2023-02-11T02:06:32;23.80;;;15.20;;
9124;SDS011;4597;48.730;9.114;2023-02-11T02:09:05;26.57;;;18.07;;
9124;SDS011;4597;48.730;9.114;2023-02-11T02:11:40;34.13;;;18.17;;
9124;SDS011;4597;48.730;9.114;2023-02-11T02:14:06;31.60;;;19.97;;
9124;SDS011;4597;48.730;9.114;2023-02-11T02:16:34;29.90;;;18.70;;
9124;SDS011;4597;48.730;9.114;2023-02-11T02:19:10;29.23;;;18.50;;
9124;SDS011;4597;48.730;9.114;2023-02-11T02:22:26;31.60;;;18.77;;
9124;SDS011;4597;48.730;9.114;2023-02-11T02:33:13;27.40;;;18.07;;
9124;SDS011;4597;48.730;9.114;2023-02-11T02:36:11;31.60;;;19.47;;
9124;SDS011;4597;48.730;9.114;2023-02-11T02:39:05;28.20;;;18.13;;
9124;SDS011;4597;48.730;9.114;2023-02-11T02:41:34;30.43;;;18.80;;
9124;SDS011;4597;48.730;9.114;2023-02-11T02:44:01;28.00;;;18.17;;
9124;SDS011;4597;48.730;9.114;2023-02-11T02:46:29;27.23;;;18.77;;
9124;SDS011;4597;48.730;9.114;2023-02-11T02:48:56;29.80;;;18.63;;
9124;SDS011;4597;48.730;9.114;2023-02-11T03:03:14;33.87;;;20.30;;
9124;SDS011;4597;48.730;9.114;2023-02-11T03:05:48;32.03;;;19.27;;
9124;SDS011;4597;48.730;9.114;2023-02-11T03:08:24;33.07;;;20.17;;
9124;SDS011;4597;48.730;9.114;2023-02-11T03:10:52;29.97;;;19.77;;
9124;SDS011;4597;48.730;9.114;2023-02-11T03:13:20;26.87;;;18.07;;
9124;SDS011;4597;48.730;9.114;2023-02-11T03:15:51;30.00;;;18.97;;
9124;SDS011;4597;48.730;9.114;2023-02-11T03:18:20;31.80;;;20.07;;
9124;SDS011;4597;48.730;9.114;2023-02-11T03:20:50;31.33;;;19.73;;
9124;SDS011;4597;48.730;9.114;2023-02-11T03:23:22;31.63;;;19.67;;
9124;SDS011;4597;48.730;9.114;2023-02-11T03:26:08;32.47;;;18.83;;
9124;SDS011;4597;48.730;9.114;2023-02-11T03:28:50;28.90;;;17.77;;
9124;SDS011;4597;48.730;9.114;2023-02-11T03:31:29;25.80;;;18.27;;
9124;SDS011;4597;48.730;9.114;2023-02-11T03:34:24;26.53;;;17.00;;
9124;SDS011;4597;48.730;9.114;2023-02-11T03:36:58;26.10;;;17.73;;
9124;SDS011;4597;48.730;9.114;2023-02-11T03:39:29;30.67;;;16.37;;
9124;SDS011;4597;48.730;9.114;2023-02-11T03:42:01;24.53;;;15.07;;
9124;SDS011;4597;48.730;9.114;2023-02-11T03:44:28;22.03;;;14.60;;
9124;SDS011;4597;48.730;9.114;2023-02-11T03:47:00;24.03;;;16.33;;
9124;SDS011;4597;48.730;9.114;2023-02-11T03:49:29;22.67;;;14.07;;
9124;SDS011;4597;48.730;9.114;2023-02-11T03:51:57;21.00;;;14.37;;
9124;SDS011;4597;48.730;9.114;2023-02-11T03:54:27;24.63;;;14.33;;
9124;SDS011;4597;48.730;9.114;2023-02-11T03:56:55;26.80;;;15.60;;
9124;SDS011;4597;48.730;9.114;2023-02-11T03:59:23;25.87;;;17.50;;
9124;SDS011;4597;48.730;9.114;2023-02-11T04:01:49;26.10;;;16.17;;
9124;SDS011;4597;48.730;9.114;2023-02-11T04:04:14;26.93;;;17.43;;
9124;SDS011;4597;48.730;9.114;2023-02-11T04:06:40;31.00;;;19.27;;
9124;SDS011;4597;48.730;9.114;2023-02-11T04:09:06;31.17;;;18.93;;
9124;SDS011;4597;48.730;9.114;2023-02-11T04:11:31;26.73;;;18.50;;
9124;SDS011;4597;48.730;9.114;2023-02-11T04:13:57;25.67;;;17.53;;
9124;SDS011;4597;48.730;9.114;2023-02-11T04:16:22;28.77;;;17.60;;
9124;SDS011;4597;48.730;9.114;2023-02-11T04:18:48;27.33;;;17.90;;
9124;SDS011;4597;48.730;9.114;2023-02-11T04:21:13;29.33;;;17.37;;
9124;SDS011;4597;48.730;9.114;2023-02-11T04:23:39;27.97;;;17.03;;
9124;SDS011;4597;48.730;9.114;2023-02-11T04:26:04;28.00;;;17.47;;
9124;SDS011;4597;48.730;9.114;2023-02-11T04:28:30;26.63;;;17.20;;
9124;SDS011;4597;48.730;9.114;2023-02-11T04:30:56;31.47;;;18.87;;
9124;SDS011;4597;48.730;9.114;2023-02-11T04:33:22;27.90;;;17.03;;
9124;SDS011;4597;48.730;9.114;2023-02-11T04:35:48;26.60;;;16.87;;
9124;SDS011;4597;48.730;9.114;2023-02-11T04:38:14;26.50;;;17.33;;
9124;SDS011;4597;48.730;9.114;2023-02-11T04:40:39;26.60;;;16.07;;
9124;SDS011;4597;48.730;9.114;2023-02-11T04:43:05;29.23;;;16.70;;
9124;SDS011;4597;48.730;9.114;2023-02-11T04:45:31;24.63;;;16.53;;
9124;SDS011;4597;48.730;9.114;2023-02-11T04:47:57;24.70;;;16.93;;
9124;SDS011;4597;48.730;9.114;2023-02-11T04:50:23;28.43;;;16.93;;
9124;SDS011;4597;48.730;9.114;2023-02-11T04:52:49;24.90;;;17.07;;
9124;SDS011;4597;48.730;9.114;2023-02-11T04:55:14;24.77;;;17.00;;
9124;SDS011;4597;48.730;9.114;2023-02-11T04:57:40;26.53;;;16.37;;
9124;SDS011;4597;48.730;9.114;2023-02-11T05:00:05;23.13;;;16.70;;
9124;SDS011;4597;48.730;9.114;2023-02-11T05:02:32;25.40;;;15.27;;
9124;SDS011;4597;48.730;9.114;2023-02-11T05:04:57;27.60;;;15.90;;
9124;SDS011;4597;48.730;9.114;2023-02-11T05:07:23;22.80;;;15.63;;
9124;SDS011;4597;48.730;9.114;2023-02-11T05:09:48;22.37;;;15.43;;
9124;SDS011;4597;48.730;9.114;2023-02-11T05:12:14;21.77;;;14.87;;
9124;SDS011;4597;48.730;9.114;2023-02-11T05:14:39;23.33;;;15.93;;
9124;SDS011;4597;48.730;9.114;2023-02-11T05:17:05;26.33;;;16.47;;
9124;SDS011;4597;48.730;9.114;2023-02-11T05:19:31;23.50;;;15.73;;
9124;SDS011;4597;48.730;9.114;2023-02-11T05:21:56;23.10;;;15.93;;
9124;SDS011;4597;48.730;9.114;2023-02-11T05:24:22;25.90;;;16.07;;
9124;SDS011;4597;48.730;9.114;2023-02-11T05:26:48;25.30;;;15.70;;
9124;SDS011;4597;48.730;9.114;2023-02-11T05:29:13;22.93;;;15.37;;
9124;SDS011;4597;48.730;9.114;2023-02-11T05:31:39;26.10;;;16.40;;
9124;SDS011;4597;48.730;9.114;2023-02-11T05:34:04;24.73;;;16.60;;
9124;SDS011;4597;48.730;9.114;2023-02-11T05:36:30;25.63;;;15.43;;
9124;SDS011;4597;48.730;9.114;2023-02-11T05:38:55;21.40;;;14.37;;
9124;SDS011;4597;48.730;9.114;2023-02-11T05:41:21;22.07;;;15.03;;
9124;SDS011;4597;48.730;9.114;2023-02-11T05:43:47;20.70;;;13.10;;
9124;SDS011;4597;48.730;9.114;2023-02-11T05:46:16;18.27;;;12.77;;
9124;SDS011;4597;48.730;9.114;2023-02-11T05:48:42;19.10;;;13.17;;
9124;SDS011;4597;48.730;9.114;2023-02-11T05:51:07;22.10;;;14.37;;
9124;SDS011;4597;48.730;9.114;2023-02-11T05:53:33;21.40;;;14.47;;
9124;SDS011;4597;48.730;9.114;2023-02-11T05:55:58;22.00;;;15.30;;
9124;SDS011;4597;48.730;9.114;2023-02-11T05:58:24;22.70;;;15.90;;
9124;SDS011;4597;48.730;9.114;2023-02-11T06:00:50;24.27;;;16.17;;
9124;SDS011;4597;48.730;9.114;2023-02-11T06:03:15;24.93;;;15.87;;
9124;SDS011;4597;48.730;9.114;2023-02-11T06:05:41;24.03;;;15.50;;
9124;SDS011;4597;48.730;9.114;2023-02-11T06:08:07;22.90;;;15.23;;
9124;SDS011;4597;48.730;9.114;2023-02-11T06:10:33;23.93;;;15.47;;
9124;SDS011;4597;48.730;9.114;2023-02-11T06:12:59;30.70;;;17.03;;
9124;SDS011;4597;48.730;9.114;2023-02-11T06:15:26;24.53;;;17.17;;
9124;SDS011;4597;48.730;9.114;2023-02-11T06:17:51;31.63;;;19.00;;
9124;SDS011;4597;48.730;9.114;2023-02-11T06:20:17;31.53;;;18.53;;
9124;SDS011;4597;48.730;9.114;2023-02-11T06:22:42;23.07;;;16.27;;
9124;SDS011;4597;48.730;9.114;2023-02-11T06:25:08;26.97;;;17.23;;
9124;SDS011;4597;48.730;9.114;2023-02-11T06:27:35;32.13;;;19.33;;
9124;SDS011;4597;48.730;9.114;2023-02-11T06:30:01;33.97;;;19.90;;
9124;SDS011;4597;48.730;9.114;2023-02-11T06:32:26;31.93;;;19.40;;
9124;SDS011;4597;48.730;9.114;2023-02-11T06:34:52;38.37;;;23.23;;
9124;SDS011;4597;48.730;9.114;2023-02-11T06:37:18;42.07;;;23.77;;
9124;SDS011;4597;48.730;9.114;2023-02-11T06:39:43;37.90;;;20.93;;
9124;SDS011;4597;48.730;9.114;2023-02-11T06:42:09;36.03;;;21.03;;
9124;SDS011;4597;48.730;9.114;2023-02-11T06:44:35;34.17;;;19.40;;
9124;SDS011;4597;48.730;9.114;2023-02-11T06:47:00;29.33;;;19.37;;
9124;SDS011;4597;48.730;9.114;2023-02-11T06:49:26;26.97;;;18.00;;
9124;SDS011;4597;48.730;9.114;2023-02-11T06:51:51;27.53;;;17.23;;
9124;SDS011;4597;48.730;9.114;2023-02-11T06:54:17;29.57;;;17.60;;
9124;SDS011;4597;48.730;9.114;2023-02-11T06:56:42;27.50;;;18.07;;
9124;SDS011;4597;48.730;9.114;2023-02-11T06:59:09;24.13;;;16.90;;
9124;SDS011;4597;48.730;9.114;2023-02-11T07:01:41;28.70;;;18.33;;
9124;SDS011;4597;48.730;9.114;2023-02-11T07:04:06;29.03;;;16.93;;
9124;SDS011;4597;48.730;9.114;2023-02-11T07:06:32;28.83;;;17.83;;
9124;SDS011;4597;48.730;9.114;2023-02-11T07:08:57;23.87;;;15.30;;
9124;SDS011;4597;48.730;9.114;2023-02-11T07:11:24;30.80;;;18.67;;
9124;SDS011;4597;48.730;9.114;2023-02-11T07:13:53;28.53;;;18.47;;
9124;SDS011;4597;48.730;9.114;2023-02-11T07:16:21;26.00;;;16.53;;
9124;SDS011;4597;48.730;9.114;2023-02-11T07:18:47;21.60;;;15.47;;
9124;SDS011;4597;48.730;9.114;2023-02-11T07:21:13;25.17;;;16.70;;
9124;SDS011;4597;48.730;9.114;2023-02-11T07:23:42;24.73;;;15.97;;
9124;SDS011;4597;48.730;9.114;2023-02-11T07:26:09;24.90;;;17.23;;
9124;SDS011;4597;48.730;9.114;2023-02-11T07:28:37;29.33;;;18.70;;
9124;SDS011;4597;48.730;9.114;2023-02-11T07:31:11;31.27;;;18.90;;
9124;SDS011;4597;48.730;9.114;2023-02-11T07:33:38;30.13;;;18.20;;
9124;SDS011;4597;48.730;9.114;2023-02-11T07:36:04;27.73;;;17.30;;
9124;SDS011;4597;48.730;9.114;2023-02-11T07:38:32;25.30;;;16.93;;
9124;SDS011;4597;48.730;9.114;2023-02-11T07:40:59;27.30;;;17.83;;
9124;SDS011;4597;48.730;9.114;2023-02-11T07:43:25;38.63;;;22.30;;
9124;SDS011;4597;48.730;9.114;2023-02-11T07:45:51;35.13;;;19.57;;
9124;SDS011;4597;48.730;9.114;2023-02-11T07:48:16;64.50;;;28.47;;
9124;SDS011;4597;48.730;9.114;2023-02-11T07:50:42;47.67;;;23.93;;
9124;SDS011;4597;48.730;9.114;2023-02-11T07:53:07;42.93;;;24.87;;
9124;SDS011;4597;48.730;9.114;2023-02-11T07:55:33;62.47;;;29.77;;
9124;SDS011;4597;48.730;9.114;2023-02-11T07:57:58;51.73;;;28.43;;
9124;SDS011;4597;48.730;9.114;2023-02-11T08:00:24;47.27;;;27.57;;
9124;SDS011;4597;48.730;9.114;2023-02-11T08:02:49;36.63;;;23.70;;
9124;SDS011;4597;48.730;9.114;2023-02-11T08:05:15;36.87;;;22.70;;
9124;SDS011;4597;48.730;9.114;2023-02-11T08:07:40;44.10;;;27.33;;
9124;SDS011;4597;48.730;9.114;2023-02-11T08:10:06;44.97;;;29.70;;
9124;SDS011;4597;48.730;9.114;2023-02-11T08:12:31;30.40;;;21.80;;
9124;SDS011;4597;48.730;9.114;2023-02-11T08:14:57;30.57;;;20.93;;
9124;SDS011;4597;48.730;9.114;2023-02-11T08:17:23;31.40;;;19.70;;
9124;SDS011;4597;48.730;9.114;2023-02-11T08:19:48;23.33;;;15.90;;
9124;SDS011;4597;48.730;9.114;2023-02-11T08:22:14;15.17;;;11.33;;
9124;SDS011;4597;48.730;9.114;2023-02-11T08:24:39;12.00;;;9.97;;
9124;SDS011;4597;48.730;9.114;2023-02-11T08:27:05;24.13;;;16.97;;
9124;SDS011;4597;48.730;9.114;2023-02-11T08:29:30;24.87;;;16.70;;
9124;SDS011;4597;48.730;9.114;2023-02-11T08:31:56;25.60;;;16.50;;
9124;SDS011;4597;48.730;9.114;2023-02-11T08:34:21;24.60;;;17.43;;
9124;SDS011;4597;48.730;9.114;2023-02-11T08:36:47;24.07;;;15.67;;
9124;SDS011;4597;48.730;9.114;2023-02-11T08:39:16;22.20;;;16.03;;
9124;SDS011;4597;48.730;9.114;2023-02-11T08:41:44;20.23;;;13.87;;
9124;SDS011;4597;48.730;9.114;2023-02-11T08:44:10;18.80;;;13.40;;
9124;SDS011;4597;48.730;9.114;2023-02-11T08:46:36;19.53;;;13.43;;
9124;SDS011;4597;48.730;9.114;2023-02-11T08:49:02;19.63;;;13.43;;
9124;SDS011;4597;48.730;9.114;2023-02-11T08:51:28;18.50;;;12.63;;
9124;SDS011;4597;48.730;9.114;2023-02-11T08:53:55;15.77;;;11.67;;
9124;SDS011;4597;48.730;9.114;2023-02-11T08:56:21;17.63;;;12.60;;
9124;SDS011;4597;48.730;9.114;2023-02-11T08:58:47;17.63;;;13.57;;
9124;SDS011;4597;48.730;9.114;2023-02-11T09:01:14;18.57;;;12.90;;
9124;SDS011;4597;48.730;9.114;2023-02-11T09:03:42;16.83;;;12.23;;
9124;SDS011;4597;48.730;9.114;2023-02-11T09:06:08;16.30;;;11.93;;
9124;SDS011;4597;48.730;9.114;2023-02-11T09:08:36;15.60;;;12.07;;
9124;SDS011;4597;48.730;9.114;2023-02-11T09:11:03;15.50;;;11.57;;
9124;SDS011;4597;48.730;9.114;2023-02-11T09:13:29;16.43;;;12.43;;
9124;SDS011;4597;48.730;9.114;2023-02-11T09:15:56;16.00;;;11.70;;
9124;SDS011;4597;48.730;9.114;2023-02-11T09:18:22;13.30;;;11.10;;
9124;SDS011;4597;48.730;9.114;2023-02-11T09:20:47;15.37;;;11.27;;
9124;SDS011;4597;48.730;9.114;2023-02-11T09:23:13;14.97;;;10.63;;
9124;SDS011;4597;48.730;9.114;2023-02-11T09:25:39;16.03;;;11.07;;
9124;SDS011;4597;48.730;9.114;2023-02-11T09:28:05;13.13;;;10.40;;
9124;SDS011;4597;48.730;9.114;2023-02-11T09:30:31;15.60;;;11.43;;
9124;SDS011;4597;48.730;9.114;2023-02-11T09:32:57;12.47;;;10.90;;
9124;SDS011;4597;48.730;9.114;2023-02-11T09:35:23;13.23;;;9.53;;
9124;SDS011;4597;48.730;9.114;2023-02-11T09:37:49;14.23;;;9.43;;
9124;SDS011;4597;48.730;9.114;2023-02-11T09:40:14;10.50;;;8.80;;
9124;SDS011;4597;48.730;9.114;2023-02-11T09:45:21;11.03;;;7.97;;
9124;SDS011;4597;48.730;9.114;2023-02-11T09:47:54;11.07;;;7.77;;
9124;SDS011;4597;48.730;9.114;2023-02-11T09:50:28;8.17;;;7.10;;
9124;SDS011;4597;48.730;9.114;2023-02-11T09:53:00;10.77;;;8.23;;
9124;SDS011;4597;48.730;9.114;2023-02-11T09:55:29;10.63;;;7.63;;
9124;SDS011;4597;48.730;9.114;2023-02-11T09:58:06;8.37;;;7.03;;
9124;SDS011;4597;48.730;9.114;2023-02-11T10:00:39;10.80;;;7.63;;
9124;SDS011;4597;48.730;9.114;2023-02-11T10:09:03;11.67;;;8.70;;
9124;SDS011;4597;48.730;9.114;2023-02-11T10:11:51;10.17;;;8.03;;
9124;SDS011;4597;48.730;9.114;2023-02-11T10:17:23;13.33;;;9.07;;
9124;SDS011;4597;48.730;9.114;2023-02-11T10:22:48;12.57;;;9.07;;
9124;SDS011;4597;48.730;9.114;2023-02-11T10:25:24;12.13;;;8.70;;
9124;SDS011;4597;48.730;9.114;2023-02-11T10:27:54;11.83;;;8.53;;
9124;SDS011;4597;48.730;9.114;2023-02-11T10:30:31;10.60;;;8.30;;
9124;SDS011;4597;48.730;9.114;2023-02-11T10:33:03;11.70;;;8.63;;
9124;SDS011;4597;48.730;9.114;2023-02-11T10:35:37;10.13;;;8.13;;
9124;SDS011;4597;48.730;9.114;2023-02-11T10:38:02;10.63;;;8.30;;
9124;SDS011;4597;48.730;9.114;2023-02-11T10:40:29;13.17;;;9.10;;
9124;SDS011;4597;48.730;9.114;2023-02-11T10:43:00;12.33;;;8.83;;
9124;SDS011;4597;48.730;9.114;2023-02-11T10:48:04;14.60;;;9.53;;
9124;SDS011;4597;48.730;9.114;2023-02-11T10:50:55;12.90;;;9.80;;
9124;SDS011;4597;48.730;9.114;2023-02-11T10:53:32;14.87;;;10.10;;
9124;SDS011;4597;48.730;9.114;2023-02-11T10:55:59;12.13;;;9.40;;
9124;SDS011;4597;48.730;9.114;2023-02-11T10:58:31;11.97;;;9.00;;
9124;SDS011;4597;48.730;9.114;2023-02-11T11:01:09;13.27;;;9.50;;
9124;SDS011;4597;48.730;9.114;2023-02-11T11:03:36;12.90;;;9.37;;
9124;SDS011;4597;48.730;9.114;2023-02-11T11:06:08;12.60;;;9.97;;
9124;SDS011;4597;48.730;9.114;2023-02-11T11:08:38;13.87;;;9.67;;
9124;SDS011;4597;48.730;9.114;2023-02-11T11:11:09;13.63;;;9.70;;
9124;SDS011;4597;48.730;9.114;2023-02-11T11:18:38;13.77;;;9.23;;
9124;SDS011;4597;48.730;9.114;2023-02-11T11:21:05;14.13;;;9.47;;
9124;SDS011;4597;48.730;9.114;2023-02-11T11:23:46;13.30;;;9.00;;
9124;SDS011;4597;48.730;9.114;2023-02-11T11:26:14;17.77;;;10.73;;
9124;SDS011;4597;48.730;9.114;2023-02-11T11:28:42;15.07;;;9.93;;
9124;SDS011;4597;48.730;9.114;2023-02-11T11:31:20;13.73;;;9.70;;
9124;SDS011;4597;48.730;9.114;2023-02-11T11:33:50;13.67;;;10.13;;
9124;SDS011;4597;48.730;9.114;2023-02-11T11:36:34;13.63;;;10.50;;
9124;SDS011;4597;48.730;9.114;2023-02-11T11:39:11;14.90;;;10.63;;
9124;SDS011;4597;48.730;9.114;2023-02-11T11:41:55;15.60;;;10.83;;
9124;SDS011;4597;48.730;9.114;2023-02-11T11:44:32;15.90;;;10.67;;
9124;SDS011;4597;48.730;9.114;2023-02-11T11:47:06;14.93;;;9.83;;
9124;SDS011;4597;48.730;9.114;2023-02-11T11:50:24;14.70;;;10.27;;
9124;SDS011;4597;48.730;9.114;2023-02-11T11:56:05;17.00;;;11.07;;
9124;SDS011;4597;48.730;9.114;2023-02-11T11:58:42;16.93;;;9.97;;
9124;SDS011;4597;48.730;9.114;2023-02-11T12:01:13;13.30;;;10.40;;
9124;SDS011;4597;48.730;9.114;2023-02-11T12:06:56;18.00;;;11.07;;
9124;SDS011;4597;48.730;9.114;2023-02-11T12:09:52;13.40;;;9.70;;
9124;SDS011;4597;48.730;9.114;2023-02-11T12:12:29;15.07;;;10.93;;
9124;SDS011;4597;48.730;9.114;2023-02-11T12:26:31;16.37;;;11.87;;
9124;SDS011;4597;48.730;9.114;2023-02-11T12:29:16;16.13;;;11.37;;
9124;SDS011;4597;48.730;9.114;2023-02-11T12:34:51;16.10;;;11.70;;
9124;SDS011;4597;48.730;9.114;2023-02-11T12:40:25;19.40;;;11.97;;
9124;SDS011;4597;48.730;9.114;2023-02-11T12:43:23;15.83;;;12.17;;
9124;SDS011;4597;48.730;9.114;2023-02-11T12:51:18;16.37;;;12.60;;
9124;SDS011;4597;48.730;9.114;2023-02-11T12:59:37;13.00;;;11.37;;
9124;SDS011;4597;48.730;9.114;2023-02-11T13:02:08;13.63;;;11.53;;
9124;SDS011;4597;48.730;9.114;2023-02-11T13:04:44;14.83;;;11.87;;
9124;SDS011;4597;48.730;9.114;2023-02-11T13:07:25;15.67;;;12.03;;
9124;SDS011;4597;48.730;9.114;2023-02-11T13:10:16;15.40;;;12.03;;
9124;SDS011;4597;48.730;9.114;2023-02-11T13:12:51;14.30;;;11.70;;
9124;SDS011;4597;48.730;9.114;2023-02-11T13:15:38;14.87;;;12.03;;
9124;SDS011;4597;48.730;9.114;2023-02-11T13:18:12;15.37;;;11.63;;
9124;SDS011;4597;48.730;9.114;2023-02-11T13:23:41;14.73;;;11.70;;
9124;SDS011;4597;48.730;9.114;2023-02-11T13:32:11;16.47;;;10.90;;
9124;SDS011;4597;48.730;9.114;2023-02-11T13:37:52;13.33;;;10.80;;
9124;SDS011;4597;48.730;9.114;2023-02-11T13:39:57;14.53;;;11.73;;
9124;SDS011;4597;48.730;9.114;2023-02-11T13:42:27;14.07;;;10.77;;
9124;SDS011;4597;48.730;9.114;2023-02-11T13:44:54;13.83;;;10.93;;
9124;SDS011;4597;48.730;9.114;2023-02-11T13:47:30;14.70;;;11.17;;
9124;SDS011;4597;48.730;9.114;2023-02-11T13:49:57;14.20;;;11.47;;
9124;SDS011;4597;48.730;9.114;2023-02-11T13:52:27;12.80;;;10.40;;
9124;SDS011;4597;48.730;9.114;2023-02-11T13:54:56;13.87;;;10.47;;
9124;SDS011;4597;48.730;9.114;2023-02-11T13:57:29;12.87;;;10.67;;
9124;SDS011;4597;48.730;9.114;2023-02-11T13:59:58;15.20;;;11.20;;
9124;SDS011;4597;48.730;9.114;2023-02-11T14:02:32;13.20;;;10.73;;
9124;SDS011;4597;48.730;9.114;2023-02-11T14:05:25;12.50;;;10.33;;
9124;SDS011;4597;48.730;9.114;2023-02-11T14:08:13;13.77;;;10.57;;
9124;SDS011;4597;48.730;9.114;2023-02-11T14:21:18;13.67;;;12.20;;
9124;SDS011;4597;48.730;9.114;2023-02-11T14:23:51;13.07;;;11.00;;
9124;SDS011;4597;48.730;9.114;2023-02-11T14:28:53;11.77;;;10.57;;
9124;SDS011;4597;48.730;9.114;2023-02-11T14:31:40;14.20;;;11.67;;
9124;SDS011;4597;48.730;9.114;2023-02-11T14:34:48;18.33;;;11.17;;
9124;SDS011;4597;48.730;9.114;2023-02-11T14:42:41;16.90;;;12.07;;
9124;SDS011;4597;48.730;9.114;2023-02-11T14:45:07;17.40;;;12.03;;
9124;SDS011;4597;48.730;9.114;2023-02-11T14:47:43;15.33;;;11.17;;
9124;SDS011;4597;48.730;9.114;2023-02-11T14:50:25;15.00;;;11.77;;
9124;SDS011;4597;48.730;9.114;2023-02-11T14:53:03;14.63;;;11.90;;
9124;SDS011;4597;48.730;9.114;2023-02-11T14:55:34;15.63;;;11.73;;
9124;SDS011;4597;48.730;9.114;2023-02-11T14:58:15;12.83;;;11.37;;
9124;SDS011;4597;48.730;9.114;2023-02-11T15:00:53;14.33;;;12.10;;
9124;SDS011;4597;48.730;9.114;2023-02-11T15:05:53;14.30;;;11.67;;
9124;SDS011;4597;48.730;9.114;2023-02-11T15:08:20;15.77;;;12.43;;
9124;SDS011;4597;48.730;9.114;2023-02-11T15:10:46;15.40;;;11.80;;
9124;SDS011;4597;48.730;9.114;2023-02-11T15:13:16;17.50;;;12.37;;
9124;SDS011;4597;48.730;9.114;2023-02-11T15:15:45;15.73;;;11.70;;
9124;SDS011;4597;48.730;9.114;2023-02-11T15:18:17;15.53;;;11.70;;
9124;SDS011;4597;48.730;9.114;2023-02-11T15:20:47;15.43;;;11.70;;
9124;SDS011;4597;48.730;9.114;2023-02-11T15:23:17;13.13;;;11.43;;
9124;SDS011;4597;48.730;9.114;2023-02-11T15:25:49;13.70;;;11.77;;
9124;SDS011;4597;48.730;9.114;2023-02-11T15:28:21;13.67;;;11.93;;
9124;SDS011;4597;48.730;9.114;2023-02-11T15:30:54;15.13;;;12.00;;
9124;SDS011;4597;48.730;9.114;2023-02-11T15:33:22;14.83;;;11.17;;
9124;SDS011;4597;48.730;9.114;2023-02-11T15:35:49;13.70;;;11.93;;
9124;SDS011;4597;48.730;9.114;2023-02-11T15:38:16;14.47;;;12.30;;
9124;SDS011;4597;48.730;9.114;2023-02-11T15:40:50;13.63;;;11.77;;
9124;SDS011;4597;48.730;9.114;2023-02-11T15:43:18;16.03;;;12.53;;
9124;SDS011;4597;48.730;9.114;2023-02-11T15:48:16;16.80;;;12.73;;
9124;SDS011;4597;48.730;9.114;2023-02-11T15:50:49;16.97;;;12.90;;
9124;SDS011;4597;48.730;9.114;2023-02-11T15:53:22;15.20;;;13.20;;
9124;SDS011;4597;48.730;9.114;2023-02-11T15:55:52;15.43;;;13.47;;
9124;SDS011;4597;48.730;9.114;2023-02-11T15:58:25;15.70;;;13.57;;
9124;SDS011;4597;48.730;9.114;2023-02-11T16:00:51;17.03;;;14.87;;
9124;SDS011;4597;48.730;9.114;2023-02-11T16:03:24;16.03;;;13.80;;
9124;SDS011;4597;48.730;9.114;2023-02-11T16:05:56;16.23;;;14.10;;
9124;SDS011;4597;48.730;9.114;2023-02-11T16:08:39;16.13;;;13.63;;
9124;SDS011;4597;48.730;9.114;2023-02-11T16:11:17;16.93;;;13.63;;
9124;SDS011;4597;48.730;9.114;2023-02-11T16:13:54;16.40;;;13.87;;
9124;SDS011;4597;48.730;9.114;2023-02-11T16:16:21;16.37;;;13.83;;
9124;SDS011;4597;48.730;9.114;2023-02-11T16:18:49;16.73;;;13.77;;
9124;SDS011;4597;48.730;9.114;2023-02-11T16:21:16;18.03;;;14.53;;
9124;SDS011;4597;48.730;9.114;2023-02-11T16:23:51;17.43;;;14.83;;
9124;SDS011;4597;48.730;9.114;2023-02-11T16:26:20;18.50;;;14.47;;
9124;SDS011;4597;48.730;9.114;2023-02-11T16:28:52;19.40;;;15.20;;
9124;SDS011;4597;48.730;9.114;2023-02-11T16:31:34;17.90;;;13.93;;
9124;SDS011;4597;48.730;9.114;2023-02-11T16:34:12;17.67;;;14.73;;
9124;SDS011;4597;48.730;9.114;2023-02-11T16:36:39;20.73;;;15.63;;
9124;SDS011;4597;48.730;9.114;2023-02-11T16:39:04;20.63;;;15.73;;
9124;SDS011;4597;48.730;9.114;2023-02-11T16:41:30;17.57;;;14.17;;
9124;SDS011;4597;48.730;9.114;2023-02-11T16:43:55;19.97;;;15.83;;
9124;SDS011;4597;48.730;9.114;2023-02-11T16:46:22;19.57;;;15.90;;
9124;SDS011;4597;48.730;9.114;2023-02-11T16:48:48;26.60;;;18.93;;
9124;SDS011;4597;48.730;9.114;2023-02-11T16:51:14;17.90;;;15.57;;
9124;SDS011;4597;48.730;9.114;2023-02-11T16:53:39;18.20;;;16.27;;
9124;SDS011;4597;48.730;9.114;2023-02-11T16:56:05;19.83;;;15.90;;
9124;SDS011;4597;48.730;9.114;2023-02-11T16:58:34;21.73;;;16.67;;
9124;SDS011;4597;48.730;9.114;2023-02-11T17:00:59;23.40;;;18.30;;